Time;durP1;ratioP1;P1;durP2;ratioP2;P2;SDS_P1;SDS_P2;PMS_P1;PMS_P2;Temp;Humidity;BMP_temperature;BMP_pressure;BME280_temperature;BME280_humidity;BME280_pressure;Samples;Min_cycle;Max_cycle;Signal;HPM_P1;HPM_P2
2021/04/06 00:01:42;;;;;;;6.35;2.78;;;1.40;99.90;;;;;;4977509;28;20232;-80
2021/04/06 00:04:11;;;;;;;9.43;2.88;;;1.40;99.90;;;;;;4977538;28;20170;-80
2021/04/06 00:06:40;;;;;;;5.10;2.75;;;1.50;99.90;;;;;;4977245;28;20246;-79
2021/04/06 00:09:12;;;;;;;9.35;2.72;;;1.60;99.90;;;;;;4977605;28;20229;-79
2021/04/06 00:11:40;;;;;;;15.32;3.63;;;1.60;99.90;;;;;;4977315;28;20202;-80
2021/04/06 00:14:07;;;;;;;7.07;2.28;;;1.60;99.90;;;;;;4977190;28;20182;-79
2021/04/06 00:16:33;;;;;;;7.68;2.80;;;1.60;99.90;;;;;;4977050;28;20196;-79
2021/04/06 00:19:00;;;;;;;6.47;3.00;;;1.70;99.90;;;;;;4977584;28;20186;-78
2021/04/06 00:21:27;;;;;;;13.85;2.50;;;1.60;99.90;;;;;;4977417;28;20184;-79
2021/04/06 00:23:53;;;;;;;11.65;3.38;;;1.70;99.90;;;;;;4977284;28;20177;-79
2021/04/06 00:26:20;;;;;;;3.53;2.10;;;1.70;99.90;;;;;;4976792;28;20231;-80
2021/04/06 00:28:47;;;;;;;7.32;2.90;;;1.80;99.90;;;;;;4976032;28;20186;-78
2021/04/06 00:31:13;;;;;;;16.50;3.40;;;1.70;99.90;;;;;;4977173;28;20564;-78
2021/04/06 00:33:46;;;;;;;9.60;2.75;;;1.80;99.90;;;;;;4975875;28;20180;-78
2021/04/06 00:36:14;;;;;;;8.50;3.08;;;1.80;99.90;;;;;;4976333;28;20212;-78
2021/04/06 00:38:42;;;;;;;10.02;4.00;;;1.90;99.90;;;;;;4976987;28;20589;-79
2021/04/06 00:41:13;;;;;;;1.83;1.38;;;1.80;99.90;;;;;;4976867;28;20183;-79
2021/04/06 00:43:42;;;;;;;4.97;2.90;;;1.80;99.90;;;;;;4977103;28;20480;-79
2021/04/06 00:46:22;;;;;;;5.03;2.72;;;2.00;99.90;;;;;;4976448;28;20209;-79
2021/04/06 00:48:51;;;;;;;5.40;2.90;;;2.00;99.90;;;;;;4976954;28;20266;-78
2021/04/06 00:51:19;;;;;;;7.50;2.60;;;2.00;99.90;;;;;;4976729;28;20182;-80
2021/04/06 00:54:00;;;;;;;4.70;2.63;;;2.10;99.90;;;;;;4976752;28;20240;-79
2021/04/06 00:56:29;;;;;;;9.52;2.60;;;2.00;99.90;;;;;;4973653;28;20231;-78
2021/04/06 00:58:57;;;;;;;4.90;2.30;;;2.00;99.90;;;;;;4976728;28;20182;-78
2021/04/06 01:01:36;;;;;;;11.98;3.10;;;2.00;99.90;;;;;;4976442;28;20234;-80
2021/04/06 01:04:09;;;;;;;6.75;2.55;;;2.00;99.90;;;;;;4976522;28;20171;-81
2021/04/06 01:06:58;;;;;;;4.20;1.67;;;2.00;99.90;;;;;;4976142;28;20223;-79
2021/04/06 01:09:53;;;;;;;11.40;3.05;;;1.90;99.90;;;;;;4976504;28;20554;-79
2021/04/06 01:12:21;;;;;;;14.32;2.85;;;2.00;99.90;;;;;;4975554;28;20219;-80
2021/04/06 01:14:49;;;;;;;9.60;2.50;;;2.00;99.90;;;;;;4975931;28;20211;-80
2021/04/06 01:17:26;;;;;;;4.65;2.22;;;2.00;99.90;;;;;;4976247;28;20289;-79
2021/04/06 01:19:52;;;;;;;9.48;2.10;;;2.10;99.90;;;;;;4976367;28;20165;-80
2021/04/06 01:22:19;;;;;;;4.50;2.45;;;2.10;99.90;;;;;;4976090;28;20626;-79
2021/04/06 01:24:46;;;;;;;13.60;2.08;;;2.10;99.90;;;;;;4975908;28;20262;-78
2021/04/06 01:27:14;;;;;;;7.22;1.95;;;2.00;99.90;;;;;;4974862;28;20257;-80
2021/04/06 01:29:51;;;;;;;16.27;3.17;;;2.00;99.90;;;;;;4976087;28;20180;-80
2021/04/06 01:32:21;;;;;;;10.90;2.78;;;2.00;99.90;;;;;;4976029;28;20176;-80
2021/04/06 01:34:47;;;;;;;13.98;2.70;;;1.90;99.90;;;;;;4975841;28;20629;-79
2021/04/06 01:37:22;;;;;;;5.95;2.40;;;1.90;99.90;;;;;;4975935;28;20588;-80
2021/04/06 01:39:51;;;;;;;4.25;1.90;;;1.90;99.90;;;;;;4975900;28;20175;-81
2021/04/06 01:42:20;;;;;;;12.88;2.92;;;1.90;99.90;;;;;;4975899;28;20189;-81
2021/04/06 01:44:48;;;;;;;6.82;2.45;;;1.80;99.90;;;;;;4958186;28;20196;-81
2021/04/06 01:47:16;;;;;;;8.77;2.63;;;1.80;99.90;;;;;;4974437;28;20211;-79
2021/04/06 01:49:46;;;;;;;7.93;2.85;;;1.70;99.90;;;;;;4975654;28;20182;-80
2021/04/06 01:52:13;;;;;;;7.93;2.55;;;1.70;99.90;;;;;;4975627;28;20254;-78
2021/04/06 01:54:41;;;;;;;7.47;2.67;;;1.70;99.90;;;;;;4975161;28;20293;-81
2021/04/06 01:57:17;;;;;;;14.57;3.33;;;1.70;99.90;;;;;;4974137;28;20295;-82
2021/04/06 01:59:53;;;;;;;13.95;4.18;;;1.70;99.90;;;;;;4975598;28;20230;-81
2021/04/06 02:02:30;;;;;;;16.83;3.17;;;1.70;99.90;;;;;;4974381;28;20183;-80
2021/04/06 02:05:01;;;;;;;11.23;3.90;;;1.70;99.90;;;;;;4973839;28;20242;-81
2021/04/06 02:07:33;;;;;;;10.77;2.88;;;1.70;99.90;;;;;;4957805;28;20195;-80
2021/04/06 02:09:59;;;;;;;13.18;3.10;;;1.80;99.90;;;;;;4974075;28;20212;-79
2021/04/06 02:12:25;;;;;;;10.88;2.63;;;1.80;99.90;;;;;;4975189;28;20656;-81
2021/04/06 02:14:56;;;;;;;4.68;2.60;;;1.80;99.90;;;;;;4957516;28;20214;-80
2021/04/06 02:17:22;;;;;;;18.83;4.18;;;1.80;99.90;;;;;;4975176;28;20518;-81
2021/04/06 02:19:47;;;;;;;3.97;1.60;;;1.80;99.90;;;;;;4958093;28;20183;-80
2021/04/06 02:22:19;;;;;;;20.50;3.17;;;1.80;99.90;;;;;;4975069;28;20273;-79
2021/04/06 02:24:46;;;;;;;8.68;3.17;;;1.80;99.90;;;;;;4974864;28;20547;-80
2021/04/06 02:27:27;;;;;;;8.20;2.80;;;1.70;99.90;;;;;;4975097;28;20199;-79
2021/04/06 02:30:08;;;;;;;7.90;3.60;;;1.80;99.90;;;;;;4974985;28;20175;-79
2021/04/06 02:32:35;;;;;;;9.05;1.77;;;1.80;99.90;;;;;;4975106;28;20191;-80
2021/04/06 02:35:07;;;;;;;8.95;2.35;;;1.80;99.90;;;;;;4973210;28;20201;-79
2021/04/06 02:37:45;;;;;;;9.27;2.88;;;1.80;99.90;;;;;;4973585;28;20171;-78
2021/04/06 02:40:18;;;;;;;11.15;3.63;;;1.80;99.90;;;;;;4974804;28;20166;-79
2021/04/06 02:42:46;;;;;;;4.75;2.13;;;1.80;99.90;;;;;;4973750;28;20176;-81
2021/04/06 02:45:23;;;;;;;11.35;3.28;;;1.80;99.90;;;;;;4974328;28;20321;-79
2021/04/06 02:47:50;;;;;;;5.40;2.53;;;1.80;99.90;;;;;;4974968;28;20179;-79
2021/04/06 02:50:23;;;;;;;8.55;3.05;;;1.80;99.90;;;;;;4974965;28;20582;-82
2021/04/06 02:52:49;;;;;;;11.45;2.58;;;1.80;99.90;;;;;;4974598;28;20583;-80
2021/04/06 02:55:16;;;;;;;13.00;2.80;;;1.80;99.90;;;;;;4974111;28;20234;-79
2021/04/06 02:57:45;;;;;;;4.85;1.90;;;1.70;99.90;;;;;;4974582;28;20214;-81
2021/04/06 03:00:30;;;;;;;5.88;2.40;;;1.70;99.90;;;;;;4974650;28;20187;-81
2021/04/06 03:03:01;;;;;;;18.02;4.45;;;1.70;99.90;;;;;;4973306;28;20274;-80
2021/04/06 03:05:36;;;;;;;11.07;2.42;;;1.60;99.90;;;;;;4974106;28;20199;-78
2021/04/06 03:08:02;;;;;;;14.55;3.97;;;1.40;99.90;;;;;;4974605;28;20519;-79
2021/04/06 03:10:32;;;;;;;11.15;2.22;;;1.40;99.90;;;;;;4974511;28;20592;-79
2021/04/06 03:13:05;;;;;;;14.15;2.03;;;1.40;99.90;;;;;;4973103;28;20180;-79
2021/04/06 03:15:31;;;;;;;9.10;3.15;;;1.50;99.90;;;;;;4974036;28;20270;-78
2021/04/06 03:17:59;;;;;;;13.18;3.58;;;1.50;99.90;;;;;;4957495;28;20180;-78
2021/04/06 03:20:26;;;;;;;9.60;3.15;;;1.50;99.90;;;;;;4976386;28;20640;-81
2021/04/06 03:22:55;;;;;;;13.75;3.50;;;1.50;99.90;;;;;;4977207;28;20191;-78
2021/04/06 03:25:22;;;;;;;8.65;4.47;;;1.50;99.90;;;;;;4977765;28;20201;-78
2021/04/06 03:27:50;;;;;;;10.02;3.50;;;1.40;99.90;;;;;;4978298;28;20677;-78
2021/04/06 03:30:34;;;;;;;6.40;2.75;;;1.30;99.90;;;;;;4978277;28;20274;-79
2021/04/06 03:33:11;;;;;;;10.63;4.57;;;1.30;99.90;;;;;;4976930;28;20183;-78
2021/04/06 03:35:39;;;;;;;12.48;3.55;;;1.30;99.90;;;;;;4977204;28;20221;-79
2021/04/06 03:38:07;;;;;;;22.85;4.35;;;1.40;99.90;;;;;;4978236;28;20210;-78
2021/04/06 03:40:34;;;;;;;10.57;3.97;;;1.50;99.90;;;;;;4977990;28;20266;-79
2021/04/06 03:43:14;;;;;;;10.63;4.10;;;1.50;99.90;;;;;;4978238;28;20234;-80
2021/04/06 03:46:20;;;;;;;9.63;4.93;;;1.50;99.90;;;;;;4960345;28;20588;-78
2021/04/06 03:48:46;;;;;;;6.38;2.95;;;1.50;99.90;;;;;;4976814;28;20197;-76
2021/04/06 03:51:28;;;;;;;8.03;2.97;;;1.50;99.90;;;;;;4977927;28;20356;-77
2021/04/06 03:53:55;;;;;;;9.68;4.57;;;1.50;99.90;;;;;;4978051;28;20678;-78
2021/04/06 03:56:32;;;;;;;19.17;5.15;;;1.50;99.90;;;;;;4977511;28;20259;-79
2021/04/06 03:58:59;;;;;;;10.60;4.13;;;1.50;99.90;;;;;;4977916;28;20175;-77
2021/04/06 04:01:26;;;;;;;7.78;4.03;;;1.40;99.90;;;;;;4977446;28;20175;-78
2021/04/06 04:03:56;;;;;;;11.30;3.85;;;1.40;99.90;;;;;;4977597;28;20183;-77
2021/04/06 04:06:26;;;;;;;8.07;5.20;;;1.40;99.90;;;;;;4975933;28;20216;-77
2021/04/06 04:08:53;;;;;;;7.93;4.22;;;1.40;99.90;;;;;;4976348;28;20259;-77
2021/04/06 04:11:19;;;;;;;15.98;5.07;;;1.40;99.90;;;;;;4976368;28;20187;-78
2021/04/06 04:13:45;;;;;;;6.82;3.95;;;1.30;99.90;;;;;;4976053;28;20207;-78
2021/04/06 04:16:11;;;;;;;13.47;3.57;;;1.20;99.90;;;;;;4976937;28;20214;-77
2021/04/06 04:18:36;;;;;;;12.13;5.07;;;1.20;99.90;;;;;;4977521;28;20178;-78
2021/04/06 04:21:03;;;;;;;11.03;4.83;;;1.20;99.90;;;;;;4976083;28;20209;-78
2021/04/06 04:23:29;;;;;;;13.10;3.65;;;1.20;99.90;;;;;;4960294;28;21009;-78
2021/04/06 04:25:55;;;;;;;13.35;2.95;;;1.20;99.90;;;;;;4976727;28;20215;-79
2021/04/06 04:28:21;;;;;;;4.73;2.47;;;1.20;99.90;;;;;;4977423;28;20188;-78
2021/04/06 04:30:48;;;;;;;9.00;2.73;;;1.20;99.90;;;;;;4977046;28;20434;-78
2021/04/06 04:33:14;;;;;;;6.32;2.40;;;1.10;99.90;;;;;;4976079;28;20192;-79
2021/04/06 04:35:40;;;;;;;11.93;3.03;;;1.10;99.90;;;;;;4975221;28;20220;-80
2021/04/06 04:38:06;;;;;;;8.73;3.30;;;1.20;99.90;;;;;;4976945;28;20195;-77
2021/04/06 04:40:33;;;;;;;10.65;3.85;;;1.00;99.90;;;;;;4976816;28;20182;-78
2021/04/06 04:42:58;;;;;;;6.15;2.20;;;1.00;99.90;;;;;;4977014;28;20187;-78
2021/04/06 04:45:24;;;;;;;10.57;3.30;;;0.90;99.90;;;;;;4975233;28;20290;-80
2021/04/06 04:47:51;;;;;;;11.13;2.90;;;0.90;99.90;;;;;;4976815;28;20177;-79
2021/04/06 04:50:19;;;;;;;7.97;2.97;;;0.90;99.90;;;;;;4976776;28;20191;-79
2021/04/06 04:52:48;;;;;;;7.07;2.22;;;1.00;99.90;;;;;;4977028;28;20181;-78
2021/04/06 04:55:19;;;;;;;13.70;2.22;;;0.80;99.90;;;;;;4976433;28;20700;-79
2021/04/06 04:57:45;;;;;;;9.05;2.55;;;0.90;99.90;;;;;;4976748;28;20240;-78
2021/04/06 05:00:12;;;;;;;16.83;2.85;;;0.90;99.90;;;;;;4976488;28;20269;-79
2021/04/06 05:02:40;;;;;;;12.02;3.17;;;0.90;99.90;;;;;;4976537;28;20182;-80
2021/04/06 05:05:07;;;;;;;12.25;3.45;;;0.90;99.90;;;;;;4976294;28;20217;-77
2021/04/06 05:07:33;;;;;;;17.60;3.08;;;0.90;99.90;;;;;;4976538;28;20231;-78
2021/04/06 05:09:59;;;;;;;18.37;1.97;;;1.00;99.90;;;;;;4976484;28;20187;-81
2021/04/06 05:12:24;;;;;;;7.73;2.23;;;1.00;99.90;;;;;;4976264;28;20420;-80
2021/04/06 05:14:51;;;;;;;7.50;2.60;;;1.00;99.90;;;;;;4976065;28;20569;-80
2021/04/06 05:17:17;;;;;;;8.03;2.93;;;1.00;99.90;;;;;;4974986;28;20204;-80
2021/04/06 05:19:43;;;;;;;5.85;2.20;;;1.00;99.90;;;;;;4975254;28;20418;-79
2021/04/06 05:22:09;;;;;;;11.45;3.55;;;1.10;99.90;;;;;;4976742;28;20179;-80
2021/04/06 05:24:35;;;;;;;8.35;3.22;;;1.30;99.90;;;;;;4976018;28;20568;-79
2021/04/06 05:27:00;;;;;;;10.50;3.00;;;1.30;99.90;;;;;;4976103;28;20199;-77
2021/04/06 05:29:26;;;;;;;8.20;3.20;;;1.30;99.90;;;;;;4974864;28;20217;-79
2021/04/06 05:31:52;;;;;;;11.27;3.40;;;1.40;99.90;;;;;;4976094;28;20785;-79
2021/04/06 05:34:17;;;;;;;9.60;3.17;;;1.30;99.90;;;;;;4974673;28;20198;-80
2021/04/06 05:36:43;;;;;;;3.30;2.10;;;1.40;99.90;;;;;;4974022;28;20223;-79
2021/04/06 05:39:09;;;;;;;9.20;2.60;;;1.40;99.90;;;;;;4974623;28;20276;-78
2021/04/06 05:41:35;;;;;;;7.87;2.60;;;1.40;99.90;;;;;;4975232;28;20183;-78
2021/04/06 05:44:03;;;;;;;5.90;2.80;;;1.40;99.90;;;;;;4975799;28;20186;-80
2021/04/06 05:46:31;;;;;;;6.90;3.00;;;1.40;99.90;;;;;;4974465;28;20203;-79
2021/04/06 05:49:02;;;;;;;9.93;3.03;;;1.60;99.90;;;;;;4974571;28;20587;-80
2021/04/06 05:51:28;;;;;;;10.27;3.00;;;1.60;99.90;;;;;;4975613;28;20222;-80
2021/04/06 05:53:55;;;;;;;9.90;2.72;;;1.60;99.90;;;;;;4975596;28;20181;-79
2021/04/06 05:56:21;;;;;;;4.32;2.60;;;1.60;99.90;;;;;;4975168;28;20208;-81
2021/04/06 05:58:47;;;;;;;11.50;3.05;;;1.60;99.90;;;;;;4975421;28;20218;-80
2021/04/06 06:01:12;;;;;;;2.90;2.17;;;1.50;99.90;;;;;;4975350;28;20562;-79
2021/04/06 06:03:39;;;;;;;3.40;2.27;;;1.50;99.90;;;;;;4974223;28;20180;-81
2021/04/06 06:06:04;;;;;;;9.30;1.88;;;1.50;99.90;;;;;;4973721;28;20238;-80
2021/04/06 06:08:30;;;;;;;8.00;2.13;;;1.40;99.90;;;;;;4975587;28;20258;-79
2021/04/06 06:11:06;;;;;;;5.03;1.33;;;1.50;99.90;;;;;;4975292;28;20180;-79
2021/04/06 06:13:35;;;;;;;3.03;1.50;;;1.40;99.90;;;;;;4975170;28;20205;-81
2021/04/06 06:16:11;;;;;;;6.10;1.55;;;1.40;99.90;;;;;;4974747;28;20580;-80
2021/04/06 06:19:00;;;;;;;3.33;1.90;;;1.40;99.90;;;;;;4974985;28;20243;-80
2021/04/06 06:21:44;;;;;;;4.50;1.58;;;1.50;99.90;;;;;;4973983;28;20709;-79
2021/04/06 06:24:20;;;;;;;7.20;2.85;;;1.50;99.90;;;;;;4975084;28;20234;-81
2021/04/06 06:26:45;;;;;;;3.53;1.20;;;1.50;99.90;;;;;;4973291;28;20205;-79
2021/04/06 06:29:17;;;;;;;4.53;2.00;;;1.50;99.90;;;;;;4974976;28;20190;-81
2021/04/06 06:31:53;;;;;;;3.15;2.25;;;1.50;99.90;;;;;;4975055;28;20160;-81
2021/04/06 06:34:30;;;;;;;7.57;2.40;;;1.60;99.90;;;;;;4975106;28;20654;-81
2021/04/06 06:37:10;;;;;;;8.05;3.50;;;1.60;99.90;;;;;;4974593;28;20222;-81
2021/04/06 06:39:46;;;;;;;5.25;2.40;;;1.60;99.90;;;;;;4975034;28;20269;-81
2021/04/06 06:42:12;;;;;;;15.80;4.57;;;1.60;99.90;;;;;;4973743;28;20178;-81
2021/04/06 06:44:38;;;;;;;7.50;3.30;;;1.70;99.90;;;;;;4974647;28;20752;-82
2021/04/06 06:47:22;;;;;;;10.30;4.15;;;1.70;99.90;;;;;;4973527;28;20439;-81
2021/04/06 06:49:52;;;;;;;5.07;3.28;;;1.70;99.90;;;;;;4973407;28;20182;-81
2021/04/06 06:52:24;;;;;;;6.80;3.03;;;1.80;99.90;;;;;;4974663;28;21353;-78
2021/04/06 06:54:52;;;;;;;10.45;4.50;;;1.90;99.90;;;;;;4972838;28;20222;-81
2021/04/06 06:57:18;;;;;;;9.55;4.90;;;2.00;99.90;;;;;;4974670;28;20253;-78
2021/04/06 06:59:47;;;;;;;8.05;3.90;;;2.10;99.90;;;;;;4974475;28;20629;-81
2021/04/06 07:02:28;;;;;;;12.73;5.30;;;2.10;99.90;;;;;;4974774;28;20607;-77
2021/04/06 07:05:09;;;;;;;6.45;3.85;;;2.30;99.90;;;;;;4974239;28;20263;-81
2021/04/06 07:07:54;;;;;;;10.25;3.33;;;2.30;99.90;;;;;;4974641;28;20170;-81
2021/04/06 07:10:25;;;;;;;8.00;3.90;;;2.30;99.90;;;;;;4973366;28;20216;-82
2021/04/06 07:13:18;;;;;;;10.90;3.80;;;2.20;99.90;;;;;;4974461;28;20179;-83
2021/04/06 07:15:46;;;;;;;8.70;3.13;;;2.20;99.90;;;;;;4973414;28;20230;-80
2021/04/06 07:18:18;;;;;;;11.15;3.00;;;2.20;99.90;;;;;;4975105;28;20707;-83
2021/04/06 07:20:53;;;;;;;9.60;5.80;;;2.20;99.90;;;;;;4973427;28;20172;-80
2021/04/06 07:23:49;;;;;;;6.35;3.72;;;2.20;99.90;;;;;;4977428;28;20209;-80
2021/04/06 07:26:17;;;;;;;13.40;2.75;;;2.30;99.90;;;;;;4973119;28;20665;-83
2021/04/06 07:28:44;;;;;;;7.30;2.55;;;2.40;99.90;;;;;;4974280;28;20190;-81
2021/04/06 07:31:12;;;;;;;6.32;2.40;;;2.50;99.90;;;;;;4974559;28;20183;-81
2021/04/06 07:33:39;;;;;;;13.02;2.45;;;2.30;99.90;;;;;;4974737;28;20266;-82
2021/04/06 07:36:25;;;;;;;9.55;1.83;;;2.50;99.90;;;;;;4972826;28;20582;-81
2021/04/06 07:38:59;;;;;;;5.13;1.83;;;2.40;99.90;;;;;;4980715;28;20258;-82
2021/04/06 07:41:28;;;;;;;12.30;2.45;;;2.50;99.90;;;;;;4973192;28;20269;-81
2021/04/06 07:43:56;;;;;;;4.82;2.20;;;2.60;99.90;;;;;;4974505;28;20545;-81
2021/04/06 07:46:33;;;;;;;4.45;2.17;;;2.80;99.90;;;;;;4974175;28;20206;-81
2021/04/06 07:49:07;;;;;;;8.45;2.50;;;3.00;99.90;;;;;;4974462;28;20184;-80
2021/04/06 07:51:52;;;;;;;7.70;3.75;;;2.80;99.90;;;;;;4974175;28;20175;-82
2021/04/06 07:54:40;;;;;;;4.05;2.60;;;2.60;99.90;;;;;;4972933;28;20582;-81
2021/04/06 07:57:06;;;;;;;6.60;2.28;;;2.50;99.90;;;;;;4970121;28;20210;-82
2021/04/06 07:59:52;;;;;;;6.68;2.70;;;2.70;99.90;;;;;;4972857;28;20184;-84
2021/04/06 08:02:22;;;;;;;7.57;2.15;;;2.80;99.90;;;;;;4972897;28;20625;-79
2021/04/06 08:04:48;;;;;;;5.70;2.35;;;2.80;99.90;;;;;;4972888;28;20188;-80
2021/04/06 08:07:19;;;;;;;3.90;1.90;;;2.80;99.90;;;;;;4976499;28;20222;-80
2021/04/06 08:09:59;;;;;;;4.60;1.83;;;2.80;99.90;;;;;;4976269;28;20225;-79
2021/04/06 08:12:26;;;;;;;5.05;2.55;;;2.90;99.90;;;;;;4977525;28;20161;-81
2021/04/06 08:14:56;;;;;;;9.38;2.50;;;2.90;99.90;;;;;;4975994;28;20596;-81
2021/04/06 08:17:27;;;;;;;3.70;2.30;;;2.80;99.90;;;;;;4960665;28;20177;-82
2021/04/06 08:19:57;;;;;;;6.05;3.05;;;2.80;99.90;;;;;;4977485;28;20522;-81
2021/04/06 08:22:43;;;;;;;3.58;1.77;;;2.90;99.90;;;;;;4977620;28;20637;-81
2021/04/06 08:25:21;;;;;;;6.25;3.40;;;2.90;99.90;;;;;;4976007;28;20263;-81
2021/04/06 08:27:51;;;;;;;10.88;2.50;;;3.00;99.90;;;;;;4977714;28;20254;-83
2021/04/06 08:30:26;;;;;;;6.03;2.40;;;3.10;99.90;;;;;;4974504;28;20192;-80
2021/04/06 08:33:00;;;;;;;2.22;2.03;;;3.20;99.90;;;;;;4986730;28;20222;-80
2021/04/06 08:35:48;;;;;;;2.25;1.80;;;3.10;99.90;;;;;;4998765;28;20266;-80
2021/04/06 08:38:20;;;;;;;4.45;1.75;;;3.20;99.90;;;;;;4988115;28;20182;-86
2021/04/06 08:40:52;;;;;;;4.28;1.73;;;3.00;99.90;;;;;;4984031;28;20187;-81
2021/04/06 08:43:25;;;;;;;2.78;1.65;;;3.10;99.90;;;;;;4991034;28;20175;-81
2021/04/06 08:46:02;;;;;;;6.63;1.45;;;3.00;99.90;;;;;;4983483;28;20198;-83
2021/04/06 08:48:46;;;;;;;4.95;1.60;;;3.10;99.90;;;;;;4977375;28;20250;-84
2021/04/06 08:51:31;;;;;;;1.85;1.50;;;3.20;99.90;;;;;;4975886;28;20176;-82
2021/04/06 08:53:58;;;;;;;3.15;2.10;;;3.40;99.90;;;;;;4976770;28;20257;-80
2021/04/06 08:56:29;;;;;;;3.67;1.92;;;3.40;99.90;;;;;;4976259;28;20696;-79
2021/04/06 08:59:22;;;;;;;6.60;1.60;;;3.40;99.90;;;;;;4975794;28;20186;-82
2021/04/06 09:02:11;;;;;;;3.90;1.77;;;3.30;99.90;;;;;;4975327;28;20173;-83
2021/04/06 09:04:40;;;;;;;3.03;1.77;;;3.40;99.90;;;;;;4975452;28;20180;-82
2021/04/06 09:07:25;;;;;;;4.95;2.28;;;3.40;99.90;;;;;;4986222;28;20266;-82
2021/04/06 09:10:11;;;;;;;3.10;2.05;;;3.40;99.90;;;;;;4983458;28;20174;-81
2021/04/06 09:12:40;;;;;;;6.32;2.00;;;3.40;99.90;;;;;;4991848;28;20182;-82
2021/04/06 09:15:10;;;;;;;1.35;1.25;;;3.30;99.90;;;;;;4995438;28;20211;-80
2021/04/06 09:17:37;;;;;;;6.00;1.90;;;3.30;99.90;;;;;;4993246;28;20179;-83
2021/04/06 09:20:22;;;;;;;7.22;3.05;;;3.50;99.90;;;;;;4995822;28;20179;-82
2021/04/06 09:22:50;;;;;;;7.25;2.40;;;3.20;99.90;;;;;;4978730;28;20190;-80
2021/04/06 09:25:23;;;;;;;9.68;3.20;;;3.10;99.90;;;;;;4994055;28;20218;-85
2021/04/06 09:27:53;;;;;;;9.88;2.53;;;3.30;99.90;;;;;;4995837;28;20179;-81
2021/04/06 09:30:31;;;;;;;4.25;2.75;;;3.70;99.90;;;;;;4995174;28;20248;-82
2021/04/06 09:33:01;;;;;;;5.25;2.63;;;4.20;99.90;;;;;;4995584;28;20173;-81
2021/04/06 09:35:28;;;;;;;3.22;1.48;;;4.20;99.90;;;;;;4993604;28;20644;-83
2021/04/06 09:37:54;;;;;;;2.63;1.90;;;4.00;99.90;;;;;;4991173;28;20203;-81
2021/04/06 09:40:32;;;;;;;3.30;1.73;;;4.10;99.90;;;;;;5007141;28;20191;-81
2021/04/06 09:42:59;;;;;;;5.32;2.55;;;4.10;99.90;;;;;;4975709;28;20583;-83
2021/04/06 09:45:27;;;;;;;9.32;1.95;;;4.20;99.90;;;;;;4975453;28;20696;-83
2021/04/06 09:47:53;;;;;;;7.22;1.98;;;4.30;99.90;;;;;;4974582;28;20198;-81
2021/04/06 09:50:19;;;;;;;10.07;2.87;;;4.10;99.90;;;;;;4974447;28;20602;-81
2021/04/06 09:52:46;;;;;;;8.38;2.22;;;4.30;99.90;;;;;;4974214;28;20474;-81
2021/04/06 09:55:13;;;;;;;3.50;1.35;;;4.40;99.90;;;;;;4975333;28;20570;-82
2021/04/06 09:57:41;;;;;;;4.95;2.08;;;4.20;99.90;;;;;;4974287;28;20187;-81
2021/04/06 10:00:16;;;;;;;4.07;1.88;;;4.30;99.90;;;;;;4974348;28;20218;-83
2021/04/06 10:02:43;;;;;;;6.50;2.17;;;4.50;99.90;;;;;;4975503;28;20201;-81
2021/04/06 10:05:20;;;;;;;2.90;1.45;;;4.20;99.90;;;;;;5006357;28;20235;-81
2021/04/06 10:07:48;;;;;;;2.90;1.40;;;4.20;99.90;;;;;;5014487;28;20170;-80
2021/04/06 10:10:26;;;;;;;6.50;1.67;;;4.20;99.90;;;;;;5013134;28;20186;-83
2021/04/06 10:12:54;;;;;;;3.72;2.03;;;4.70;99.90;;;;;;5013075;28;20180;-81
2021/04/06 10:15:21;;;;;;;12.18;2.47;;;4.80;99.90;;;;;;5012639;28;20217;-80
2021/04/06 10:17:48;;;;;;;5.05;1.73;;;5.20;99.90;;;;;;5012794;28;20175;-80
2021/04/06 10:20:19;;;;;;;5.93;1.42;;;5.20;99.90;;;;;;5014308;28;20169;-83
2021/04/06 10:22:50;;;;;;;5.40;1.88;;;5.10;99.90;;;;;;5012807;28;20181;-79
2021/04/06 10:25:27;;;;;;;1.70;1.50;;;5.10;99.90;;;;;;5012552;28;20206;-81
2021/04/06 10:27:58;;;;;;;4.45;1.50;;;4.30;99.90;;;;;;5013900;28;20175;-81
2021/04/06 10:30:38;;;;;;;3.83;1.30;;;3.80;99.90;;;;;;5013948;28;20220;-79
2021/04/06 10:33:14;;;;;;;8.77;7.60;;;3.20;99.90;;;;;;4977635;28;20183;-79
2021/04/06 10:35:52;;;;;;;9.20;5.72;;;2.60;99.90;;;;;;4988953;28;20596;-78
2021/04/06 10:38:29;;;;;;;4.43;3.15;;;2.30;99.90;;;;;;4984071;28;20172;-79
2021/04/06 10:41:03;;;;;;;1.85;1.52;;;2.30;99.90;;;;;;4974967;28;20247;-78
2021/04/06 10:43:30;;;;;;;4.63;2.13;;;2.00;99.90;;;;;;4974790;28;20620;-78
2021/04/06 10:46:13;;;;;;;4.70;2.30;;;2.10;99.90;;;;;;4973449;28;20295;-78
2021/04/06 10:48:42;;;;;;;4.68;2.50;;;2.30;99.90;;;;;;5005992;28;20531;-79
2021/04/06 10:51:18;;;;;;;3.75;1.60;;;3.00;99.90;;;;;;4974819;28;20186;-79
2021/04/06 10:53:45;;;;;;;3.10;2.05;;;3.60;99.90;;;;;;4974807;28;20187;-79
2021/04/06 10:56:14;;;;;;;6.18;2.00;;;3.70;99.90;;;;;;5005595;28;20300;-79
2021/04/06 10:58:44;;;;;;;2.80;1.48;;;4.00;99.90;;;;;;4974533;28;20582;-79
2021/04/06 11:01:19;;;;;;;3.42;1.30;;;4.00;99.90;;;;;;4974605;28;20177;-80
2021/04/06 11:03:50;;;;;;;5.45;1.50;;;4.20;99.90;;;;;;4974596;28;20182;-79
2021/04/06 11:06:20;;;;;;;3.50;1.42;;;4.40;99.90;;;;;;4974048;28;20203;-80
2021/04/06 11:08:51;;;;;;;4.55;1.48;;;4.70;99.90;;;;;;4979045;28;20185;-79
2021/04/06 11:11:32;;;;;;;4.38;2.13;;;4.80;99.90;;;;;;4978540;28;20186;-78
2021/04/06 11:14:01;;;;;;;6.05;2.10;;;4.40;99.90;;;;;;4974422;28;20659;-78
2021/04/06 11:16:27;;;;;;;5.20;1.92;;;4.10;99.90;;;;;;4972594;28;20299;-80
2021/04/06 11:18:58;;;;;;;6.38;1.83;;;3.80;99.90;;;;;;4974234;28;20172;-78
2021/04/06 11:21:24;;;;;;;7.55;2.47;;;3.50;99.90;;;;;;4974342;28;20178;-78
2021/04/06 11:23:50;;;;;;;4.47;1.98;;;3.40;99.90;;;;;;4974301;28;20168;-77
2021/04/06 11:26:15;;;;;;;3.80;1.43;;;3.50;99.90;;;;;;4973775;28;20208;-79
2021/04/06 11:28:42;;;;;;;4.60;2.23;;;3.60;99.90;;;;;;4974166;28;20641;-78
2021/04/06 11:31:08;;;;;;;1.63;1.52;;;3.80;99.90;;;;;;4972808;28;21000;-79
2021/04/06 11:33:34;;;;;;;9.83;3.27;;;3.80;99.90;;;;;;4972956;28;20263;-78
2021/04/06 11:36:00;;;;;;;5.53;2.03;;;3.80;99.90;;;;;;4973939;28;20467;-79
2021/04/06 11:38:25;;;;;;;3.23;2.00;;;4.00;99.90;;;;;;4972846;28;20173;-78
2021/04/06 11:40:51;;;;;;;4.00;2.50;;;4.00;99.90;;;;;;4976186;28;20415;-78
2021/04/06 11:43:17;;;;;;;6.67;2.27;;;4.20;99.90;;;;;;4978112;28;20191;-78
2021/04/06 11:45:42;;;;;;;2.03;1.77;;;4.00;99.90;;;;;;4976502;28;20232;-79
2021/04/06 11:48:09;;;;;;;4.77;2.37;;;4.20;99.90;;;;;;4976713;28;20184;-79
2021/04/06 11:50:35;;;;;;;1.90;1.67;;;4.00;99.90;;;;;;4977899;28;20656;-79
2021/04/06 11:53:03;;;;;;;3.23;1.57;;;3.50;99.90;;;;;;4977892;28;20191;-79
2021/04/06 11:55:29;;;;;;;5.63;1.40;;;3.60;99.90;;;;;;4977199;28;20205;-80
2021/04/06 11:57:55;;;;;;;2.20;1.30;;;3.70;99.90;;;;;;4977823;28;20238;-80
2021/04/06 12:00:21;;;;;;;1.93;1.23;;;3.40;99.90;;;;;;4977763;28;20176;-79
2021/04/06 12:02:46;;;;;;;3.67;1.60;;;3.50;99.90;;;;;;4977699;28;20239;-79
2021/04/06 12:05:13;;;;;;;1.60;1.20;;;3.50;99.90;;;;;;4976024;28;20204;-78
2021/04/06 12:07:38;;;;;;;3.90;2.00;;;3.20;99.90;;;;;;4977769;28;20195;-78
2021/04/06 12:10:06;;;;;;;4.37;2.27;;;3.20;99.90;;;;;;4977797;28;20191;-76
2021/04/06 12:12:32;;;;;;;2.83;1.10;;;3.80;99.90;;;;;;4977884;28;20263;-77
2021/04/06 12:14:57;;;;;;;2.90;1.40;;;4.40;99.90;;;;;;4977493;28;20291;-77
2021/04/06 12:17:23;;;;;;;6.23;1.43;;;4.50;99.90;;;;;;4977499;28;20649;-78
2021/04/06 12:19:48;;;;;;;3.60;1.43;;;4.30;99.90;;;;;;4977432;28;20650;-78
2021/04/06 12:22:14;;;;;;;2.80;1.47;;;5.20;99.90;;;;;;4976071;28;20181;-77
2021/04/06 12:24:40;;;;;;;5.73;1.50;;;5.60;99.90;;;;;;4976903;28;20195;-78
2021/04/06 12:27:06;;;;;;;1.97;1.00;;;6.30;99.90;;;;;;4975609;28;20728;-78
2021/04/06 12:29:31;;;;;;;2.63;1.50;;;6.50;99.90;;;;;;4977085;28;20173;-79
2021/04/06 12:31:57;;;;;;;3.83;1.33;;;6.20;99.90;;;;;;4977099;28;20203;-79
2021/04/06 12:34:22;;;;;;;2.17;1.40;;;6.10;99.90;;;;;;4978778;28;20180;-80
2021/04/06 12:36:48;;;;;;;2.03;1.63;;;5.60;99.90;;;;;;5001293;28;20409;-80
2021/04/06 12:39:14;;;;;;;7.17;1.53;;;5.30;99.90;;;;;;4987985;28;20228;-78
2021/04/06 12:41:40;;;;;;;5.40;1.77;;;5.30;99.90;;;;;;4989412;28;20275;-80
2021/04/06 12:44:05;;;;;;;6.23;2.10;;;5.00;99.90;;;;;;4989354;28;20233;-79
2021/04/06 12:46:31;;;;;;;4.50;1.70;;;4.90;99.90;;;;;;4988542;28;20215;-78
2021/04/06 12:48:57;;;;;;;8.33;2.23;;;4.90;99.90;;;;;;4986984;28;20437;-78
2021/04/06 12:51:23;;;;;;;3.60;2.13;;;4.70;99.90;;;;;;4985642;28;20442;-80
2021/04/06 12:53:49;;;;;;;1.80;1.40;;;4.10;99.90;;;;;;4997262;28;20652;-78
2021/04/06 12:56:15;;;;;;;4.10;1.43;;;3.80;99.90;;;;;;4980998;28;20468;-79
2021/04/06 12:58:40;;;;;;;3.92;0.80;;;3.70;99.90;;;;;;4992921;28;20326;-78
2021/04/06 13:01:07;;;;;;;2.07;0.83;;;4.20;99.90;;;;;;4988116;28;20674;-79
2021/04/06 13:03:33;;;;;;;5.00;1.75;;;4.50;99.90;;;;;;4984113;28;20199;-79
2021/04/06 13:05:58;;;;;;;5.27;1.00;;;4.90;99.90;;;;;;4986719;28;20231;-80
2021/04/06 13:08:24;;;;;;;2.50;0.80;;;4.80;99.90;;;;;;4985837;28;20603;-78
2021/04/06 13:10:52;;;;;;;3.73;1.13;;;4.90;99.90;;;;;;4989626;28;20241;-79
2021/04/06 13:13:18;;;;;;;0.90;0.70;;;5.40;99.90;;;;;;4993449;28;20186;-79